Página principal
METAR-TAF:

METAR-TAF

Aeroportos :

Jerez de la Frontera, Espanha

latitude: 36-45N, longitude: 006-04W, altura: 27 m

Observação actual do tempo

O boletim foi feito há 4 horas e 19 minutos, às 00:30 UTC
Vento calmo
Temperatura 6°C
Humidade 70%
Pressão 1008 hPa
Visibilidade 10 km ou mais

METAR: LEJR 220030Z AUTO 00000KT 9999 NCD 06/01 Q1008

Hora: 05:49 (04:49 UTC)

Previsão

O boletim foi feito há 5 horas e 49 minutos, às 23:00 UTC
Previsão válida de 22 às 00 UTC a 22 às 24 UTC
Vento 5 kt de nor-nordeste
Visibilidade 10 km ou mais
sem nuvens abaixo de 1500 metros e sem cumulonimbus

TAF: LEJR 212300Z 2200/2224 03005KT CAVOK TX17/2215Z TN02/2207Z

Observações e previsões do tempo de mais de 4000 aeroportos (mensagens METAR e TAF).

As estações disponíveis são os pontos amarelos e vermelhos sobre o mapa.

Mova o rato sobre o mapa para ver o nome da estação.

Depois clique no ponto para visualizar as observações e previsões meteorológicas.

Para alterar o mapa : clique nos botões verdes com uma cruz preta para aumentar o zoom; no botão verde com uma pitada de zoom; ou nas setas verdes para mapas adjacentes.


METAR-TAF: